createdAt,value
2023-04-16T00:01:06.999Z,6.64
2023-04-16T00:04:10.444Z,6.58
2023-04-16T00:07:13.292Z,6.56
2023-04-16T00:10:16.460Z,6.50
2023-04-16T00:13:19.226Z,6.40
2023-04-16T00:16:22.100Z,6.32
2023-04-16T00:19:24.729Z,6.23
2023-04-16T00:22:27.778Z,6.15
2023-04-16T00:25:30.415Z,6.05
2023-04-16T00:28:33.355Z,5.96
2023-04-16T00:31:36.817Z,5.90
2023-04-16T00:34:39.597Z,5.90
2023-04-16T00:37:42.312Z,5.87
2023-04-16T00:40:45.242Z,5.94
2023-04-16T00:43:47.955Z,5.91
2023-04-16T00:46:51.150Z,5.88
2023-04-16T00:49:54.333Z,5.84
2023-04-16T00:52:57.399Z,5.85
2023-04-16T00:56:02.400Z,5.86
2023-04-16T00:59:06.386Z,5.77
2023-04-16T01:02:09.091Z,5.69
2023-04-16T01:05:12.027Z,5.63
2023-04-16T01:08:19.258Z,5.62
2023-04-16T01:11:24.327Z,5.55
2023-04-16T01:14:26.951Z,5.63
2023-04-16T01:17:29.919Z,5.62
2023-04-16T01:20:35.952Z,5.62
2023-04-16T01:23:39.151Z,5.59
2023-04-16T01:26:41.935Z,5.63
2023-04-16T01:29:44.764Z,5.62
2023-04-16T01:32:48.008Z,5.65
2023-04-16T01:35:51.178Z,5.65
2023-04-16T01:38:53.707Z,5.72
2023-04-16T01:41:57.186Z,5.73
2023-04-16T01:44:59.661Z,5.77
2023-04-16T01:48:03.905Z,5.79
2023-04-16T01:51:06.911Z,5.74
2023-04-16T01:54:10.032Z,5.75
2023-04-16T01:57:12.727Z,5.75
2023-04-16T02:00:16.002Z,5.72
2023-04-16T02:03:21.520Z,5.66
2023-04-16T02:06:24.972Z,5.61
2023-04-16T02:09:27.557Z,5.58
2023-04-16T02:12:31.129Z,5.55
2023-04-16T02:15:33.769Z,5.54
2023-04-16T02:18:36.852Z,5.53
2023-04-16T02:21:41.805Z,5.55
2023-04-16T02:24:44.306Z,5.50
2023-04-16T02:27:47.253Z,5.45
2023-04-16T02:30:51.273Z,5.47
2023-04-16T02:33:54.640Z,5.44
2023-04-16T02:36:58.363Z,5.40
2023-04-16T02:40:01.373Z,5.39
2023-04-16T02:43:04.759Z,5.37
2023-04-16T02:46:08.685Z,5.33
2023-04-16T02:49:11.690Z,5.41
2023-04-16T02:52:15.648Z,5.40
2023-04-16T02:55:18.386Z,5.36
2023-04-16T02:58:23.992Z,5.40
2023-04-16T03:01:28.533Z,5.40
2023-04-16T03:04:33.130Z,5.28
2023-04-16T03:07:35.932Z,5.21
2023-04-16T03:10:39.025Z,5.12
2023-04-16T03:13:41.741Z,5.10
2023-04-16T03:16:45.704Z,5.16
2023-04-16T03:19:48.403Z,5.06
2023-04-16T03:22:55.087Z,5.00
2023-04-16T03:25:57.800Z,5.00
2023-04-16T03:29:02.149Z,4.96
2023-04-16T03:32:06.330Z,4.95
2023-04-16T03:35:09.840Z,4.94
2023-04-16T03:38:12.814Z,4.92
2023-04-16T03:41:15.889Z,4.90
2023-04-16T03:44:18.665Z,4.91
2023-04-16T03:47:21.777Z,4.92
2023-04-16T03:50:24.804Z,4.90
2023-04-16T03:53:27.624Z,4.88
2023-04-16T03:56:30.545Z,4.91
2023-04-16T03:59:33.610Z,4.93
2023-04-16T04:02:36.434Z,5.00
2023-04-16T04:05:41.407Z,5.11
2023-04-16T04:08:44.362Z,5.19
2023-04-16T04:11:48.769Z,5.26
2023-04-16T04:14:51.583Z,5.33
2023-04-16T04:17:54.570Z,5.36
2023-04-16T04:20:57.813Z,5.47
2023-04-16T04:24:01.049Z,5.48
2023-04-16T04:27:04.767Z,5.51
2023-04-16T04:30:08.449Z,5.53
2023-04-16T04:33:11.357Z,5.57
2023-04-16T04:36:14.336Z,5.66
2023-04-16T04:39:17.885Z,5.76
2023-04-16T04:42:21.551Z,5.89
2023-04-16T04:45:25.654Z,6.12
2023-04-16T04:48:29.035Z,6.33
2023-04-16T04:51:32.070Z,6.38
2023-04-16T04:54:34.971Z,6.41
2023-04-16T04:57:37.612Z,6.28
2023-04-16T05:00:41.068Z,6.27
2023-04-16T05:03:44.307Z,6.28
2023-04-16T05:06:47.317Z,6.25
2023-04-16T05:09:49.926Z,6.32
2023-04-16T05:12:52.867Z,6.30
2023-04-16T05:15:55.488Z,6.31
2023-04-16T05:18:58.463Z,6.33
2023-04-16T05:22:02.441Z,6.42
2023-04-16T05:25:05.759Z,6.52
2023-04-16T05:28:08.291Z,6.69
2023-04-16T05:31:11.161Z,6.76
2023-04-16T05:34:13.782Z,6.68
2023-04-16T05:37:16.682Z,6.69
2023-04-16T05:40:19.433Z,6.78
2023-04-16T05:43:22.249Z,6.76
2023-04-16T05:46:25.136Z,6.83
2023-04-16T05:49:28.092Z,6.98
2023-04-16T05:52:30.796Z,7.15
2023-04-16T05:55:34.051Z,7.16
2023-04-16T05:58:37.112Z,7.30
2023-04-16T06:01:40.400Z,7.38
2023-04-16T06:04:44.006Z,7.48
2023-04-16T06:07:46.641Z,7.57
2023-04-16T06:10:49.699Z,7.71
2023-04-16T06:13:52.808Z,7.82
2023-04-16T06:16:56.371Z,7.93
2023-04-16T06:19:59.373Z,8.07
2023-04-16T06:23:02.299Z,8.24
2023-04-16T06:26:05.645Z,8.33
2023-04-16T06:29:08.805Z,8.52
2023-04-16T06:32:12.085Z,8.50
2023-04-16T06:35:14.934Z,8.51
2023-04-16T06:38:17.570Z,8.68
2023-04-16T06:41:22.761Z,8.86
2023-04-16T06:44:25.385Z,9.05
2023-04-16T06:47:28.392Z,9.20
2023-04-16T06:50:31.091Z,9.37
2023-04-16T06:53:34.201Z,9.54
2023-04-16T06:56:37.515Z,9.71
2023-04-16T06:59:40.689Z,9.91
2023-04-16T07:02:43.888Z,9.81
2023-04-16T07:05:46.814Z,9.95
2023-04-16T07:08:49.464Z,9.76
2023-04-16T07:11:52.623Z,9.91
2023-04-16T07:14:55.773Z,9.83
2023-04-16T07:17:58.714Z,9.75
2023-04-16T07:21:01.421Z,9.82
2023-04-16T07:24:04.824Z,9.76
2023-04-16T07:27:07.410Z,9.68
2023-04-16T07:30:10.810Z,9.89
2023-04-16T07:33:13.606Z,10.10
2023-04-16T07:36:16.457Z,10.35
2023-04-16T07:39:18.997Z,10.60
2023-04-16T07:42:22.131Z,10.76
2023-04-16T07:45:25.089Z,10.74
2023-04-16T07:48:28.677Z,10.77
2023-04-16T07:51:31.513Z,10.85
2023-04-16T07:54:34.452Z,10.76
2023-04-16T07:57:37.527Z,10.90
2023-04-16T08:00:40.489Z,11.26
2023-04-16T08:03:43.873Z,11.58
2023-04-16T08:06:46.482Z,11.91
2023-04-16T08:09:52.034Z,12.02
2023-04-16T08:12:54.597Z,11.86
2023-04-16T08:15:57.459Z,12.05
2023-04-16T08:19:01.200Z,12.07
2023-04-16T08:22:04.594Z,12.08
2023-04-16T08:25:07.801Z,12.34
2023-04-16T08:28:10.712Z,12.81
2023-04-16T08:31:13.494Z,13.23
2023-04-16T08:34:16.907Z,13.36
2023-04-16T08:37:19.612Z,13.80
2023-04-16T08:40:23.618Z,13.92
2023-04-16T08:43:26.771Z,13.76
2023-04-16T08:46:31.635Z,13.79
2023-04-16T08:49:36.949Z,14.11
2023-04-16T08:52:46.348Z,14.40
2023-04-16T08:55:52.679Z,14.54
2023-04-16T08:58:56.000Z,14.83
2023-04-16T09:01:59.635Z,14.93
2023-04-16T09:05:07.485Z,15.01
2023-04-16T09:08:10.129Z,15.43
2023-04-16T09:11:18.296Z,15.52
2023-04-16T09:14:22.090Z,15.40
2023-04-16T09:17:24.990Z,15.58
2023-04-16T09:20:27.572Z,15.59
2023-04-16T09:23:31.150Z,15.84
2023-04-16T09:26:34.453Z,16.15
2023-04-16T09:29:39.560Z,15.95
2023-04-16T09:32:42.199Z,15.67
2023-04-16T09:35:47.630Z,15.39
2023-04-16T09:38:54.974Z,15.85
2023-04-16T09:42:00.299Z,15.82
2023-04-16T09:45:05.114Z,15.28
2023-04-16T09:48:09.011Z,15.09
2023-04-16T09:51:11.573Z,15.02
2023-04-16T09:54:15.674Z,14.87
2023-04-16T09:57:22.953Z,14.82
2023-04-16T10:00:26.002Z,14.79
2023-04-16T10:03:33.762Z,14.81
2023-04-16T10:06:36.574Z,14.99
2023-04-16T10:09:40.076Z,14.89
2023-04-16T10:12:43.671Z,15.06
2023-04-16T10:15:46.861Z,15.33
2023-04-16T10:18:49.648Z,15.55
2023-04-16T10:21:55.654Z,15.79
2023-04-16T10:24:59.067Z,15.83
2023-04-16T10:28:03.117Z,16.52
2023-04-16T10:31:08.702Z,16.85
2023-04-16T10:34:12.219Z,17.13
2023-04-16T10:37:18.064Z,17.19
2023-04-16T10:40:26.148Z,17.44
2023-04-16T10:43:30.181Z,17.71
2023-04-16T10:46:34.486Z,17.32
2023-04-16T10:49:37.166Z,17.65
2023-04-16T10:52:40.303Z,17.82
2023-04-16T10:55:56.818Z,18.01
2023-04-16T10:58:59.657Z,18.39
2023-04-16T11:02:13.809Z,18.15
2023-04-16T11:05:16.819Z,18.26
2023-04-16T11:08:19.514Z,18.85
2023-04-16T11:11:23.612Z,18.84
2023-04-16T11:14:26.283Z,18.87
2023-04-16T11:17:52.716Z,19.12
2023-04-16T11:20:56.020Z,19.48
2023-04-16T11:23:59.061Z,19.64
2023-04-16T11:27:01.847Z,19.96
2023-04-16T11:30:08.351Z,19.46
2023-04-16T11:33:12.353Z,18.53
2023-04-16T11:36:15.440Z,17.75
2023-04-16T11:39:24.343Z,17.53
2023-04-16T11:42:28.615Z,17.84
2023-04-16T11:45:31.471Z,17.85
2023-04-16T11:48:53.660Z,17.97
2023-04-16T11:51:57.298Z,18.06
2023-04-16T11:55:00.471Z,18.14
2023-04-16T11:58:13.289Z,18.32
2023-04-16T12:01:21.470Z,18.54
2023-04-16T12:04:26.931Z,18.13
2023-04-16T12:07:29.787Z,18.44
2023-04-16T12:10:35.205Z,18.91
2023-04-16T12:13:40.189Z,19.20
2023-04-16T12:16:43.299Z,18.93
2023-04-16T12:19:52.936Z,19.28
2023-04-16T12:22:58.288Z,19.59
2023-04-16T12:26:10.445Z,19.67
2023-04-16T12:29:22.046Z,19.57
2023-04-16T12:32:24.665Z,19.70
2023-04-16T12:35:32.150Z,19.43
2023-04-16T12:38:34.793Z,19.42
2023-04-16T12:41:39.604Z,19.67
2023-04-16T12:44:42.220Z,19.68
2023-04-16T12:47:45.089Z,19.69
2023-04-16T12:50:48.149Z,19.27
2023-04-16T12:53:51.001Z,19.25
2023-04-16T12:56:53.562Z,19.14
2023-04-16T12:59:57.905Z,18.95
2023-04-16T13:03:00.602Z,19.04
2023-04-16T13:06:04.398Z,18.99
2023-04-16T13:09:07.423Z,19.08
2023-04-16T13:12:10.708Z,19.09
2023-04-16T13:15:13.511Z,19.11
2023-04-16T13:18:16.516Z,19.39
2023-04-16T13:21:19.069Z,19.16
2023-04-16T13:24:23.172Z,18.86
2023-04-16T13:27:25.839Z,18.60
2023-04-16T13:30:29.533Z,18.55
2023-04-16T13:33:32.333Z,18.43
2023-04-16T13:36:35.579Z,18.38
2023-04-16T13:39:38.536Z,18.02
2023-04-16T13:42:41.440Z,17.96
2023-04-16T13:45:44.097Z,18.33
2023-04-16T13:48:47.264Z,18.36
2023-04-16T13:51:49.939Z,18.33
2023-04-16T13:54:52.946Z,18.43
2023-04-16T13:57:56.392Z,18.12
2023-04-16T14:00:59.600Z,18.14
2023-04-16T14:04:06.847Z,18.34
2023-04-16T14:07:09.552Z,18.37
2023-04-16T14:10:12.489Z,18.18
2023-04-16T14:13:15.554Z,18.20
2023-04-16T14:16:18.489Z,18.19
2023-04-16T14:19:21.448Z,18.33
2023-04-16T14:22:24.392Z,18.25
2023-04-16T14:25:27.125Z,18.26
2023-04-16T14:28:30.127Z,17.86
2023-04-16T14:31:33.599Z,18.10
2023-04-16T14:34:37.071Z,18.18
2023-04-16T14:37:39.727Z,17.79
2023-04-16T14:40:42.573Z,17.78
2023-04-16T14:43:45.206Z,17.71
2023-04-16T14:46:48.311Z,17.63
2023-04-16T14:49:51.216Z,17.76
2023-04-16T14:52:54.597Z,17.92
2023-04-16T14:55:59.074Z,18.18
2023-04-16T14:59:02.035Z,18.11
2023-04-16T15:02:04.795Z,18.07
2023-04-16T15:05:10.466Z,18.20
2023-04-16T15:08:13.142Z,18.11
2023-04-16T15:11:16.046Z,18.21
2023-04-16T15:14:19.018Z,18.11
2023-04-16T15:17:21.850Z,18.13
2023-04-16T15:20:24.498Z,18.07
2023-04-16T15:23:27.738Z,18.10
2023-04-16T15:26:31.012Z,18.77
2023-04-16T15:29:34.093Z,19.36
2023-04-16T15:32:36.697Z,19.96
2023-04-16T15:35:41.275Z,21.09
2023-04-16T15:38:43.846Z,22.37
2023-04-16T15:41:59.732Z,25.17
2023-04-16T15:45:03.898Z,27.51
2023-04-16T15:48:07.124Z,26.67
2023-04-16T15:51:11.047Z,24.61
2023-04-16T15:54:13.982Z,22.79
2023-04-16T15:57:16.582Z,21.81
2023-04-16T16:00:21.315Z,21.01
2023-04-16T16:03:24.347Z,20.51
2023-04-16T16:06:27.221Z,19.91
2023-04-16T16:09:30.599Z,19.42
2023-04-16T16:12:33.407Z,18.93
2023-04-16T16:15:36.302Z,18.33
2023-04-16T16:18:39.037Z,17.88
2023-04-16T16:21:42.113Z,17.69
2023-04-16T16:24:44.670Z,17.50
2023-04-16T16:27:47.507Z,17.13
2023-04-16T16:30:51.337Z,17.02
2023-04-16T16:33:54.183Z,16.69
2023-04-16T16:36:56.870Z,16.61
2023-04-16T16:39:59.924Z,16.51
2023-04-16T16:43:02.889Z,16.51
2023-04-16T16:46:07.566Z,16.57
2023-04-16T16:49:10.887Z,16.57
2023-04-16T16:52:14.216Z,16.43
2023-04-16T16:55:18.725Z,16.48
2023-04-16T16:58:21.915Z,16.39
2023-04-16T17:01:27.664Z,16.28
2023-04-16T17:04:30.618Z,16.34
2023-04-16T17:07:33.673Z,16.21
2023-04-16T17:10:36.668Z,16.09
2023-04-16T17:13:39.419Z,15.96
2023-04-16T17:16:42.371Z,15.77
2023-04-16T17:19:45.397Z,15.60
2023-04-16T17:22:48.746Z,15.48
2023-04-16T17:25:51.419Z,15.25
2023-04-16T17:28:54.498Z,15.09
2023-04-16T17:31:57.910Z,14.95
2023-04-16T17:35:01.935Z,14.85
2023-04-16T17:38:04.598Z,14.86
2023-04-16T17:41:07.477Z,14.57
2023-04-16T17:44:11.718Z,14.40
2023-04-16T17:47:14.919Z,14.21
2023-04-16T17:50:17.660Z,14.23
2023-04-16T17:53:20.669Z,14.09
2023-04-16T17:56:23.329Z,13.97
2023-04-16T17:59:27.442Z,13.89
2023-04-16T18:02:30.398Z,13.98
2023-04-16T18:05:33.658Z,13.98
2023-04-16T18:08:37.016Z,13.90
2023-04-16T18:11:40.011Z,13.87
2023-04-16T18:14:44.835Z,13.70
2023-04-16T18:17:47.973Z,13.65
2023-04-16T18:20:52.043Z,13.60
2023-04-16T18:23:54.885Z,13.58
2023-04-16T18:26:57.543Z,13.54
2023-04-16T18:30:00.610Z,13.51
2023-04-16T18:36:11.806Z,13.41
2023-04-16T18:39:14.852Z,13.36
2023-04-16T18:42:17.748Z,13.32
2023-04-16T18:45:21.817Z,13.36
2023-04-16T18:48:25.120Z,13.37
2023-04-16T18:51:27.747Z,13.38
2023-04-16T18:54:30.610Z,13.36
2023-04-16T18:57:33.195Z,13.33
2023-04-16T19:00:37.571Z,13.36
2023-04-16T19:03:40.341Z,13.47
2023-04-16T19:06:43.936Z,13.42
2023-04-16T19:09:46.576Z,13.35
2023-04-16T19:12:49.937Z,13.30
2023-04-16T19:16:01.644Z,13.18
2023-04-16T19:19:04.911Z,13.27
2023-04-16T19:22:07.583Z,13.21
2023-04-16T19:25:10.848Z,13.18
2023-04-16T19:28:13.430Z,13.16
2023-04-16T19:31:16.486Z,13.12
2023-04-16T19:34:19.278Z,13.02
2023-04-16T19:37:22.224Z,12.89
2023-04-16T19:40:24.957Z,12.93
2023-04-16T19:43:30.713Z,12.88
2023-04-16T19:46:33.775Z,12.92
2023-04-16T19:49:36.895Z,12.88
2023-04-16T19:52:39.785Z,12.85
2023-04-16T19:55:42.980Z,12.93
2023-04-16T19:58:45.559Z,12.83
2023-04-16T20:01:48.686Z,12.80
2023-04-16T20:04:53.114Z,12.83
2023-04-16T20:07:56.636Z,12.80
2023-04-16T20:10:59.533Z,12.78
2023-04-16T20:14:02.326Z,12.77
2023-04-16T20:17:09.805Z,12.73
2023-04-16T20:20:15.604Z,12.76
2023-04-16T20:23:18.767Z,12.77
2023-04-16T20:26:23.974Z,12.75
2023-04-16T20:29:27.097Z,12.79
2023-04-16T20:32:30.140Z,12.78
2023-04-16T20:35:37.053Z,12.73
2023-04-16T20:38:42.417Z,12.80
2023-04-16T20:41:56.427Z,12.72
2023-04-16T20:45:01.066Z,12.71
2023-04-16T20:48:07.775Z,12.72
2023-04-16T20:51:10.380Z,12.81
2023-04-16T20:54:13.157Z,12.77
2023-04-16T20:57:15.843Z,12.71
2023-04-16T21:00:18.920Z,12.71
2023-04-16T21:03:21.667Z,12.68
2023-04-16T21:06:24.736Z,12.54
2023-04-16T21:09:27.354Z,12.56
2023-04-16T21:12:30.479Z,12.53
2023-04-16T21:15:34.673Z,12.43
2023-04-16T21:18:37.862Z,12.49
2023-04-16T21:21:41.861Z,12.44
2023-04-16T21:24:44.895Z,12.44
2023-04-16T21:27:47.542Z,12.47
2023-04-16T21:30:53.644Z,12.39
2023-04-16T21:33:56.380Z,12.34
2023-04-16T21:36:59.349Z,12.40
2023-04-16T21:40:02.500Z,12.44
2023-04-16T21:43:05.367Z,12.35
2023-04-16T21:46:07.882Z,12.28
2023-04-16T21:49:10.983Z,12.25
2023-04-16T21:52:19.781Z,12.19
2023-04-16T21:55:22.907Z,12.16
2023-04-16T21:58:25.890Z,12.05
2023-04-16T22:01:29.366Z,12.15
2023-04-16T22:04:39.022Z,12.04
2023-04-16T22:07:41.706Z,11.92
2023-04-16T22:10:44.592Z,11.85
2023-04-16T22:13:47.857Z,11.81
2023-04-16T22:16:52.265Z,11.79
2023-04-16T22:19:55.040Z,11.83
2023-04-16T22:22:58.718Z,11.89
2023-04-16T22:26:02.807Z,11.80
2023-04-16T22:29:06.059Z,11.80
2023-04-16T22:32:08.747Z,11.81
2023-04-16T22:35:12.595Z,11.79
2023-04-16T22:38:16.487Z,11.83
2023-04-16T22:41:19.720Z,11.89
2023-04-16T22:44:22.926Z,11.85
2023-04-16T22:47:25.810Z,11.86
2023-04-16T22:50:31.159Z,11.83
2023-04-16T22:53:35.960Z,11.78
2023-04-16T22:56:38.964Z,11.70
2023-04-16T22:59:41.907Z,11.71
2023-04-16T23:02:45.309Z,11.65
2023-04-16T23:05:49.066Z,11.61
2023-04-16T23:08:51.665Z,11.67
2023-04-16T23:11:54.725Z,11.57
2023-04-16T23:14:58.337Z,11.57
2023-04-16T23:18:01.338Z,11.55
2023-04-16T23:21:04.126Z,11.54
2023-04-16T23:24:07.729Z,11.54
2023-04-16T23:27:10.731Z,11.49
2023-04-16T23:30:13.941Z,11.48
2023-04-16T23:33:17.753Z,11.44
2023-04-16T23:36:20.811Z,11.46
2023-04-16T23:39:24.046Z,11.46
2023-04-16T23:42:26.936Z,11.47
2023-04-16T23:45:29.508Z,11.45
2023-04-16T23:48:32.463Z,11.43
2023-04-16T23:51:35.066Z,11.42
2023-04-16T23:54:38.393Z,11.38
2023-04-16T23:57:41.025Z,11.46
